sensor_id;sensor_type;location;lat;lon;timestamp;P1;P2;P0
74589;PMS5003;63093;56.112;40.348;2022-09-02T10:21:05;1.00;1.00;0.00
74589;PMS5003;63093;56.112;40.348;2022-09-02T10:23:11;0.00;0.00;0.00
74589;PMS5003;63093;56.112;40.348;2022-09-02T10:30:07;2.80;2.00;1.00
74589;PMS5003;63093;56.112;40.348;2022-09-02T10:40:52;10.00;9.00;6.00
74589;PMS5003;63093;56.112;40.348;2022-09-02T10:45:03;12.00;10.25;7.75
74589;PMS5003;63093;56.112;40.348;2022-09-02T10:47:09;12.50;12.50;9.00
74589;PMS5003;63093;56.112;40.348;2022-09-02T10:54:02;6.75;5.50;3.00
74589;PMS5003;63093;56.112;40.348;2022-09-02T10:56:13;8.00;6.00;4.00
74589;PMS5003;63093;56.112;40.348;2022-09-02T11:00:17;5.75;5.00;3.00
74589;PMS5003;63093;56.112;40.348;2022-09-02T11:02:23;6.80;4.00;3.00
74589;PMS5003;63093;56.112;40.348;2022-09-02T11:06:40;4.80;3.80;2.00
74589;PMS5003;63093;56.112;40.348;2022-09-02T11:08:53;3.00;3.00;2.00
74589;PMS5003;63093;56.112;40.348;2022-09-02T11:10:58;3.20;2.00;1.00
74589;PMS5003;63093;56.112;40.348;2022-09-02T11:13:04;4.40;3.00;1.00
74589;PMS5003;63093;56.112;40.348;2022-09-02T11:15:26;2.40;2.00;0.20
74589;PMS5003;63093;56.112;40.348;2022-09-02T11:17:36;4.40;3.60;1.40
74589;PMS5003;63093;56.112;40.348;2022-09-02T11:19:39;4.00;2.60;1.00
74589;PMS5003;63093;56.112;40.348;2022-09-02T11:21:46;4.20;3.20;1.60
74589;PMS5003;63093;56.112;40.348;2022-09-02T11:23:52;2.80;2.00;1.00
74589;PMS5003;63093;56.112;40.348;2022-09-02T11:26:05;2.20;2.20;1.00
74589;PMS5003;63093;56.112;40.348;2022-09-02T11:30:26;0.40;0.00;0.00
74589;PMS5003;63093;56.112;40.348;2022-09-02T11:32:52;2.00;1.00;0.40
74589;PMS5003;63093;56.112;40.348;2022-09-02T11:34:56;2.60;1.40;0.80
74589;PMS5003;63093;56.112;40.348;2022-09-02T11:36:58;2.40;1.40;0.20
74589;PMS5003;63093;56.112;40.348;2022-09-02T11:43:46;1.00;1.00;0.60
74589;PMS5003;63093;56.112;40.348;2022-09-02T11:50:23;0.80;0.80;0.00
74589;PMS5003;63093;56.112;40.348;2022-09-02T11:54:40;0.80;0.80;0.00
74589;PMS5003;63093;56.112;40.348;2022-09-02T11:56:44;0.20;0.20;0.00
74589;PMS5003;63093;56.112;40.348;2022-09-02T11:58:47;2.80;2.80;1.00
74589;PMS5003;63093;56.112;40.348;2022-09-02T12:07:24;0.80;0.80;0.00
74589;PMS5003;63093;56.112;40.348;2022-09-02T12:11:45;0.00;0.00;0.00
74589;PMS5003;63093;56.112;40.348;2022-09-02T12:13:47;2.60;0.60;0.00
74589;PMS5003;63093;56.112;40.348;2022-09-02T12:15:48;0.00;0.00;0.00
74589;PMS5003;63093;56.112;40.348;2022-09-02T12:21:02;0.00;0.00;0.00
74589;PMS5003;63093;56.112;40.348;2022-09-02T12:23:02;0.60;0.60;0.00
74589;PMS5003;63093;56.112;40.348;2022-09-02T12:25:03;0.50;0.00;0.00
74589;PMS5003;63093;56.112;40.348;2022-09-02T12:27:05;0.20;0.20;0.00
74589;PMS5003;63093;56.112;40.348;2022-09-02T12:33:28;0.00;0.00;0.00
74589;PMS5003;63093;56.112;40.348;2022-09-02T12:35:33;1.00;1.00;0.00
74589;PMS5003;63093;56.112;40.348;2022-09-02T12:37:56;0.00;0.00;0.00
74589;PMS5003;63093;56.112;40.348;2022-09-02T12:39:56;0.00;0.00;0.00
74589;PMS5003;63093;56.112;40.348;2022-09-02T12:48:33;0.60;0.60;0.00
74589;PMS5003;63093;56.112;40.348;2022-09-02T12:52:44;1.00;0.00;0.00
74589;PMS5003;63093;56.112;40.348;2022-09-02T12:54:46;2.60;1.60;0.00
74589;PMS5003;63093;56.112;40.348;2022-09-02T12:56:48;1.00;0.00;0.00
74589;PMS5003;63093;56.112;40.348;2022-09-02T12:58:50;0.80;0.80;0.00
74589;PMS5003;63093;56.112;40.348;2022-09-02T13:01:00;1.00;1.00;0.00
74589;PMS5003;63093;56.112;40.348;2022-09-02T13:03:12;0.00;0.00;0.00
74589;PMS5003;63093;56.112;40.348;2022-09-02T13:05:27;1.00;1.00;0.00
74589;PMS5003;63093;56.112;40.348;2022-09-02T13:07:58;0.00;0.00;0.00
74589;PMS5003;63093;56.112;40.348;2022-09-02T13:10:00;2.40;0.40;0.00
74589;PMS5003;63093;56.112;40.348;2022-09-02T13:28:59;0.20;0.00;0.00
74589;PMS5003;63093;56.112;40.348;2022-09-02T13:33:05;1.00;1.00;0.00
74589;PMS5003;63093;56.112;40.348;2022-09-02T13:35:08;1.20;1.00;0.20
74589;PMS5003;63093;56.112;40.348;2022-09-02T13:37:32;0.80;0.80;0.80
74589;PMS5003;63093;56.112;40.348;2022-09-02T13:39:33;1.20;1.20;1.00
74589;PMS5003;63093;56.112;40.348;2022-09-02T13:41:37;1.20;1.20;0.00
74589;PMS5003;63093;56.112;40.348;2022-09-02T13:43:38;2.50;1.75;1.00
74589;PMS5003;63093;56.112;40.348;2022-09-02T13:45:38;2.00;1.00;0.00
74589;PMS5003;63093;56.112;40.348;2022-09-02T13:47:43;3.00;2.00;1.00
74589;PMS5003;63093;56.112;40.348;2022-09-02T13:49:46;2.40;2.40;0.40
74589;PMS5003;63093;56.112;40.348;2022-09-02T13:51:47;0.20;0.20;0.00
74589;PMS5003;63093;56.112;40.348;2022-09-02T13:53:50;2.40;2.20;0.40
74589;PMS5003;63093;56.112;40.348;2022-09-02T13:55:52;1.50;1.50;0.25
74589;PMS5003;63093;56.112;40.348;2022-09-02T13:57:58;1.20;1.20;1.00
74589;PMS5003;63093;56.112;40.348;2022-09-02T13:59:59;1.00;1.00;0.00
74589;PMS5003;63093;56.112;40.348;2022-09-02T14:02:14;2.00;1.75;1.00
74589;PMS5003;63093;56.112;40.348;2022-09-02T14:04:15;2.60;1.00;0.20
74589;PMS5003;63093;56.112;40.348;2022-09-02T14:06:16;1.00;1.00;1.00
74589;PMS5003;63093;56.112;40.348;2022-09-02T14:08:19;1.00;1.00;1.00
74589;PMS5003;63093;56.112;40.348;2022-09-02T14:10:21;3.40;2.00;1.00
74589;PMS5003;63093;56.112;40.348;2022-09-02T14:12:22;3.00;3.00;1.00
74589;PMS5003;63093;56.112;40.348;2022-09-02T14:14:23;2.00;1.00;1.00
74589;PMS5003;63093;56.112;40.348;2022-09-02T14:18:25;2.60;2.60;0.20
74589;PMS5003;63093;56.112;40.348;2022-09-02T14:20:26;3.00;1.50;1.25
74589;PMS5003;63093;56.112;40.348;2022-09-02T14:22:27;1.75;1.75;1.00
74589;PMS5003;63093;56.112;40.348;2022-09-02T14:24:29;1.80;1.80;1.00
74589;PMS5003;63093;56.112;40.348;2022-09-02T14:26:37;2.00;0.00;0.00
74589;PMS5003;63093;56.112;40.348;2022-09-02T14:28:40;1.00;1.00;1.00
74589;PMS5003;63093;56.112;40.348;2022-09-02T14:30:52;0.25;0.25;0.00
74589;PMS5003;63093;56.112;40.348;2022-09-02T14:37:20;1.00;1.00;1.00
74589;PMS5003;63093;56.112;40.348;2022-09-02T14:39:22;1.00;1.00;1.00
74589;PMS5003;63093;56.112;40.348;2022-09-02T14:41:26;2.25;2.25;1.00
74589;PMS5003;63093;56.112;40.348;2022-09-02T14:43:33;2.00;1.20;0.60
74589;PMS5003;63093;56.112;40.348;2022-09-02T14:45:40;1.20;1.00;0.60
74589;PMS5003;63093;56.112;40.348;2022-09-02T14:47:43;5.00;3.20;1.00
74589;PMS5003;63093;56.112;40.348;2022-09-02T14:49:45;5.00;4.00;1.00
74589;PMS5003;63093;56.112;40.348;2022-09-02T14:51:54;7.20;3.40;2.00
74589;PMS5003;63093;56.112;40.348;2022-09-02T14:53:56;4.00;2.80;1.40
74589;PMS5003;63093;56.112;40.348;2022-09-02T14:55:57;4.00;1.75;1.00
74589;PMS5003;63093;56.112;40.348;2022-09-02T14:58:01;10.60;5.20;2.00
74589;PMS5003;63093;56.112;40.348;2022-09-02T15:00:09;8.20;4.00;2.80
74589;PMS5003;63093;56.112;40.348;2022-09-02T15:06:38;5.75;3.50;1.25
74589;PMS5003;63093;56.112;40.348;2022-09-02T15:08:44;5.50;3.00;1.00
74589;PMS5003;63093;56.112;40.348;2022-09-02T15:10:45;6.00;1.75;1.00
74589;PMS5003;63093;56.112;40.348;2022-09-02T15:12:50;4.00;3.00;2.00
74589;PMS5003;63093;56.112;40.348;2022-09-02T15:14:52;3.00;3.00;1.80
74589;PMS5003;63093;56.112;40.348;2022-09-02T15:16:56;7.00;3.60;2.00
74589;PMS5003;63093;56.112;40.348;2022-09-02T15:19:03;3.80;3.00;1.00
74589;PMS5003;63093;56.112;40.348;2022-09-02T15:21:04;5.40;2.00;1.00
74589;PMS5003;63093;56.112;40.348;2022-09-02T15:23:05;5.00;3.00;1.50
74589;PMS5003;63093;56.112;40.348;2022-09-02T15:25:06;4.25;3.00;1.00
74589;PMS5003;63093;56.112;40.348;2022-09-02T15:27:07;4.50;3.00;1.75
74589;PMS5003;63093;56.112;40.348;2022-09-02T15:29:08;3.00;2.00;1.00
74589;PMS5003;63093;56.112;40.348;2022-09-02T15:31:08;4.75;2.00;1.00
74589;PMS5003;63093;56.112;40.348;2022-09-02T15:33:09;2.75;2.00;1.00
74589;PMS5003;63093;56.112;40.348;2022-09-02T15:35:09;3.50;2.00;1.00
74589;PMS5003;63093;56.112;40.348;2022-09-02T15:37:10;9.25;2.00;0.50
74589;PMS5003;63093;56.112;40.348;2022-09-02T15:39:10;3.00;2.75;1.00
74589;PMS5003;63093;56.112;40.348;2022-09-02T15:41:18;3.75;2.00;1.00
74589;PMS5003;63093;56.112;40.348;2022-09-02T15:43:19;3.00;2.00;1.00
74589;PMS5003;63093;56.112;40.348;2022-09-02T15:45:20;3.50;2.25;1.00
74589;PMS5003;63093;56.112;40.348;2022-09-02T15:47:21;3.25;3.25;1.00
74589;PMS5003;63093;56.112;40.348;2022-09-02T15:49:22;3.00;2.75;1.00
74589;PMS5003;63093;56.112;40.348;2022-09-02T15:51:23;4.00;2.75;1.00
74589;PMS5003;63093;56.112;40.348;2022-09-02T15:53:39;2.00;2.00;1.00
74589;PMS5003;63093;56.112;40.348;2022-09-02T15:55:40;3.75;2.00;1.00
74589;PMS5003;63093;56.112;40.348;2022-09-02T15:57:40;3.00;3.00;1.00
74589;PMS5003;63093;56.112;40.348;2022-09-02T15:59:41;3.50;2.00;1.00
74589;PMS5003;63093;56.112;40.348;2022-09-02T16:01:43;2.25;1.25;1.00
74589;PMS5003;63093;56.112;40.348;2022-09-02T16:03:44;1.60;1.60;1.00
74589;PMS5003;63093;56.112;40.348;2022-09-02T16:05:45;1.50;1.50;1.00
74589;PMS5003;63093;56.112;40.348;2022-09-02T16:07:45;2.50;2.50;1.00
74589;PMS5003;63093;56.112;40.348;2022-09-02T16:09:55;2.20;2.20;1.00
74589;PMS5003;63093;56.112;40.348;2022-09-02T16:11:56;2.25;2.00;1.00
74589;PMS5003;63093;56.112;40.348;2022-09-02T16:13:57;2.75;2.00;1.00
74589;PMS5003;63093;56.112;40.348;2022-09-02T16:16:07;2.75;1.00;1.00
74589;PMS5003;63093;56.112;40.348;2022-09-02T16:18:08;2.00;2.00;1.00
74589;PMS5003;63093;56.112;40.348;2022-09-02T16:20:09;2.00;2.00;0.50
74589;PMS5003;63093;56.112;40.348;2022-09-02T16:22:10;1.00;1.00;0.00
74589;PMS5003;63093;56.112;40.348;2022-09-02T16:24:12;2.20;1.80;1.00
74589;PMS5003;63093;56.112;40.348;2022-09-02T16:26:26;2.00;2.00;1.00
74589;PMS5003;63093;56.112;40.348;2022-09-02T16:28:27;1.80;1.80;1.00
74589;PMS5003;63093;56.112;40.348;2022-09-02T16:30:28;2.00;2.00;1.00
74589;PMS5003;63093;56.112;40.348;2022-09-02T16:32:29;1.80;1.80;0.80
74589;PMS5003;63093;56.112;40.348;2022-09-02T16:34:30;3.00;2.00;0.50
74589;PMS5003;63093;56.112;40.348;2022-09-02T16:36:31;3.40;1.00;1.00
74589;PMS5003;63093;56.112;40.348;2022-09-02T16:38:32;2.00;1.60;0.00
74589;PMS5003;63093;56.112;40.348;2022-09-02T16:40:33;1.25;1.25;0.50
74589;PMS5003;63093;56.112;40.348;2022-09-02T16:42:34;2.00;2.00;1.00
74589;PMS5003;63093;56.112;40.348;2022-09-02T16:44:37;1.75;1.75;1.00
74589;PMS5003;63093;56.112;40.348;2022-09-02T16:46:41;3.00;2.00;2.00
74589;PMS5003;63093;56.112;40.348;2022-09-02T16:48:42;1.60;1.40;1.00
74589;PMS5003;63093;56.112;40.348;2022-09-02T16:50:42;2.00;2.00;1.00
74589;PMS5003;63093;56.112;40.348;2022-09-02T16:52:43;2.25;2.00;1.00
74589;PMS5003;63093;56.112;40.348;2022-09-02T16:54:44;2.00;2.00;0.75
74589;PMS5003;63093;56.112;40.348;2022-09-02T16:58:58;2.25;2.25;2.00
74589;PMS5003;63093;56.112;40.348;2022-09-02T17:00:59;3.00;2.00;1.00
74589;PMS5003;63093;56.112;40.348;2022-09-02T17:03:04;4.00;2.00;1.40
74589;PMS5003;63093;56.112;40.348;2022-09-02T17:05:05;1.25;1.25;1.00
74589;PMS5003;63093;56.112;40.348;2022-09-02T17:07:07;2.00;2.00;1.00
74589;PMS5003;63093;56.112;40.348;2022-09-02T17:09:08;1.60;1.60;1.00
74589;PMS5003;63093;56.112;40.348;2022-09-02T17:13:12;2.75;2.75;1.50
74589;PMS5003;63093;56.112;40.348;2022-09-02T17:15:13;1.25;1.25;1.00
74589;PMS5003;63093;56.112;40.348;2022-09-02T17:17:14;2.50;1.00;1.00
74589;PMS5003;63093;56.112;40.348;2022-09-02T17:19:16;2.50;2.50;1.00
74589;PMS5003;63093;56.112;40.348;2022-09-02T17:23:21;1.00;1.00;1.00
74589;PMS5003;63093;56.112;40.348;2022-09-02T17:25:21;2.00;2.00;1.00
74589;PMS5003;63093;56.112;40.348;2022-09-02T17:27:22;1.50;1.50;1.00
74589;PMS5003;63093;56.112;40.348;2022-09-02T17:29:23;0.25;0.25;0.00
74589;PMS5003;63093;56.112;40.348;2022-09-02T17:31:25;1.80;1.60;1.00
74589;PMS5003;63093;56.112;40.348;2022-09-02T17:33:26;3.00;3.00;1.00
74589;PMS5003;63093;56.112;40.348;2022-09-02T17:35:27;2.00;2.00;1.00
74589;PMS5003;63093;56.112;40.348;2022-09-02T17:37:28;3.00;3.00;1.00
74589;PMS5003;63093;56.112;40.348;2022-09-02T17:39:28;3.00;2.25;1.00
74589;PMS5003;63093;56.112;40.348;2022-09-02T17:41:30;1.00;1.00;0.00
74589;PMS5003;63093;56.112;40.348;2022-09-02T17:43:49;2.00;1.00;1.00
74589;PMS5003;63093;56.112;40.348;2022-09-02T17:45:49;1.25;1.25;0.00
74589;PMS5003;63093;56.112;40.348;2022-09-02T17:47:50;3.00;2.00;1.00
74589;PMS5003;63093;56.112;40.348;2022-09-02T17:49:51;1.00;1.00;0.50
74589;PMS5003;63093;56.112;40.348;2022-09-02T17:51:52;1.00;1.00;1.00
74589;PMS5003;63093;56.112;40.348;2022-09-02T17:53:53;2.40;2.40;1.60
74589;PMS5003;63093;56.112;40.348;2022-09-02T17:56:04;1.00;1.00;1.00
74589;PMS5003;63093;56.112;40.348;2022-09-02T17:58:12;1.60;1.60;1.00
74589;PMS5003;63093;56.112;40.348;2022-09-02T18:00:18;1.25;1.25;1.00
74589;PMS5003;63093;56.112;40.348;2022-09-02T18:04:26;3.00;2.75;1.00
74589;PMS5003;63093;56.112;40.348;2022-09-02T18:06:31;2.00;2.00;1.00
74589;PMS5003;63093;56.112;40.348;2022-09-02T18:08:37;3.00;2.00;1.00
74589;PMS5003;63093;56.112;40.348;2022-09-02T18:10:39;4.60;3.80;1.60
74589;PMS5003;63093;56.112;40.348;2022-09-02T18:12:41;3.80;2.80;1.80
74589;PMS5003;63093;56.112;40.348;2022-09-02T18:14:43;4.75;2.75;1.00
74589;PMS5003;63093;56.112;40.348;2022-09-02T18:21:00;2.80;1.80;0.80
74589;PMS5003;63093;56.112;40.348;2022-09-02T18:30:08;5.25;5.25;3.00
74589;PMS5003;63093;56.112;40.348;2022-09-02T18:34:12;3.00;1.00;0.00
74589;PMS5003;63093;56.112;40.348;2022-09-02T18:36:20;2.40;2.40;1.20
74589;PMS5003;63093;56.112;40.348;2022-09-02T18:38:34;2.00;2.00;1.00
74589;PMS5003;63093;56.112;40.348;2022-09-02T18:41:05;3.25;3.00;1.25
74589;PMS5003;63093;56.112;40.348;2022-09-02T18:43:12;5.75;3.00;1.50
74589;PMS5003;63093;56.112;40.348;2022-09-02T18:45:21;3.00;3.00;0.75
74589;PMS5003;63093;56.112;40.348;2022-09-02T18:47:23;2.00;2.00;1.00
74589;PMS5003;63093;56.112;40.348;2022-09-02T18:49:25;2.40;2.00;1.00
74589;PMS5003;63093;56.112;40.348;2022-09-02T18:51:28;1.00;1.00;1.00
74589;PMS5003;63093;56.112;40.348;2022-09-02T18:53:40;2.00;1.80;1.00
74589;PMS5003;63093;56.112;40.348;2022-09-02T18:55:41;2.40;2.40;0.80
74589;PMS5003;63093;56.112;40.348;2022-09-02T18:57:56;1.20;1.20;1.00
74589;PMS5003;63093;56.112;40.348;2022-09-02T19:00:09;1.25;1.00;0.25
